logo
Search for airport 
image banner adimage banner adimage banner ad
image banner ad

LFDP - Saint Pierre D'oleron

Located in , France

ICAO - LFDP, IATA -

Data provided by Airmate  

General information

Coordinates: N45°57'28" W1°18'41"
Elevation is 22 feet MSL.
Magnetic variation is 0.09° East
Rated:
View ratings:
[VIEW]
View others Airports in Poitou-Charentes

Operational data

Special qualification required
Current time UTC:
Current local time:
Weather at : LFBH - La Rochelle Ile De Re ( 26 km )
METAR: LFBH 130400Z AUTO 32008KT 9999 BKN014 BKN021 BKN026 15/12 Q1016 TEMPO SCT025
TAF: TAF LFBH 122300Z 1300/1324 30010KT 9999 SCT025 BECMG 1303/1305 VRB03KT PROB40 TEMPO 1305/1309 BKN012 BECMG 1311/1313 30010KT BECMG 1322/1324 02006KT
View NOTAMs / SUP AIP / TFR affecting this airport [VIEW]
Communications frequencies: [VIEW]

Runways:

RWY identifierQFULength (ft)Width (ft)SurfaceLDA (ft)
1097°3317164GRASS3071
28277°3317164GRASS2841

Airport contact information

Address: France

Fuel provider

TotalEnergies

TotalEnergies
+33 546470231

Other aviation service providers

Aviation club (not for profit)

Les Ailes Oléronaises

Les Ailes Oléronaises
ailesoleronaises@gmail.com+33546470231
+33784454244
Rated:
View ratings:
[VIEW]

Club ULM Oléronais

Club ULM Oléronais

Satellite view of LFDP